createdAt,value
2018-11-27T00:02:47.982Z,81.60
2018-11-27T00:06:44.579Z,82.20
2018-11-27T00:10:41.337Z,82.70
2018-11-27T00:14:38.272Z,83.10
2018-11-27T00:18:35.554Z,83.70
2018-11-27T00:22:32.095Z,84.20
2018-11-27T00:26:28.844Z,84.70
2018-11-27T00:30:25.390Z,85.80
2018-11-27T00:34:21.936Z,85.80
2018-11-27T00:38:18.769Z,85.90
2018-11-27T00:42:15.429Z,86.40
2018-11-27T00:46:15.140Z,86.50
2018-11-27T00:50:22.549Z,86.70
2018-11-27T00:54:20.075Z,87.20
2018-11-27T00:58:18.828Z,87.00
2018-11-27T01:02:15.595Z,87.50
2018-11-27T01:06:12.414Z,87.40
2018-11-27T01:10:15.396Z,87.50
2018-11-27T01:14:12.042Z,87.60
2018-11-27T01:18:09.148Z,87.90
2018-11-27T01:22:06.595Z,88.00
2018-11-27T01:26:03.314Z,88.20
2018-11-27T01:30:20.017Z,88.40
2018-11-27T01:34:16.886Z,89.00
2018-11-27T01:38:14.019Z,89.30
2018-11-27T01:42:10.728Z,90.00
2018-11-27T01:46:07.869Z,90.00
2018-11-27T01:50:08.523Z,90.00
2018-11-27T01:54:05.206Z,89.90
2018-11-27T01:58:01.900Z,90.00
2018-11-27T02:01:59.854Z,90.00
2018-11-27T02:05:57.032Z,89.90
2018-11-27T02:09:53.668Z,90.10
2018-11-27T02:13:50.524Z,90.40
2018-11-27T02:17:47.231Z,90.80
2018-11-27T02:21:43.980Z,90.50
2018-11-27T02:25:40.664Z,90.70
2018-11-27T02:29:37.133Z,90.60
2018-11-27T02:33:33.758Z,90.60
2018-11-27T02:37:30.458Z,90.70
2018-11-27T02:41:27.347Z,90.80
2018-11-27T02:45:24.855Z,90.80
2018-11-27T02:49:21.610Z,91.20
2018-11-27T02:53:18.724Z,91.00
2018-11-27T02:57:16.490Z,91.40
2018-11-27T03:01:13.166Z,91.70
2018-11-27T03:05:19.866Z,92.00
2018-11-27T03:09:16.494Z,92.60
2018-11-27T03:13:13.216Z,92.80
2018-11-27T03:17:09.832Z,92.80
2018-11-27T03:21:06.734Z,92.70
2018-11-27T03:25:03.875Z,93.10
2018-11-27T03:29:00.399Z,93.30
2018-11-27T03:32:57.014Z,93.50
2018-11-27T03:36:53.571Z,93.60
2018-11-27T03:40:50.255Z,93.90
2018-11-27T03:44:46.893Z,94.20
2018-11-27T03:48:43.414Z,94.60
2018-11-27T03:52:39.915Z,95.00
2018-11-27T03:56:36.638Z,94.60
2018-11-27T04:00:33.287Z,94.60
2018-11-27T04:04:35.367Z,94.50
2018-11-27T04:08:32.080Z,94.50
2018-11-27T04:12:28.736Z,94.50
2018-11-27T04:16:25.331Z,94.30
2018-11-27T04:20:21.934Z,93.90
2018-11-27T04:24:18.779Z,95.00
2018-11-27T04:28:15.479Z,94.50
2018-11-27T04:32:11.998Z,94.50
2018-11-27T04:36:08.577Z,94.40
2018-11-27T04:40:05.670Z,94.40
2018-11-27T04:44:02.228Z,94.30
2018-11-27T04:47:58.855Z,94.30
2018-11-27T04:51:55.470Z,94.30
2018-11-27T04:55:52.134Z,94.30
2018-11-27T04:59:48.844Z,94.40
2018-11-27T05:03:45.380Z,94.30
2018-11-27T05:07:42.214Z,93.90
2018-11-27T05:11:39.321Z,94.00
2018-11-27T05:15:36.304Z,94.30
2018-11-27T05:19:32.680Z,94.40
2018-11-27T05:23:29.021Z,94.30
2018-11-27T05:27:25.406Z,94.30
2018-11-27T05:31:21.921Z,94.10
2018-11-27T05:35:21.150Z,94.10
2018-11-27T05:39:17.490Z,94.10
2018-11-27T05:43:13.946Z,94.20
2018-11-27T05:47:10.546Z,94.20
2018-11-27T05:51:08.088Z,94.40
2018-11-27T05:55:04.997Z,94.50
2018-11-27T05:59:02.020Z,94.40
2018-11-27T06:03:00.211Z,94.60
2018-11-27T06:06:57.310Z,94.60
2018-11-27T06:10:55.479Z,94.60
2018-11-27T06:14:52.168Z,94.70
2018-11-27T06:18:48.848Z,94.90
2018-11-27T06:22:45.698Z,94.80
2018-11-27T06:26:45.976Z,94.80
2018-11-27T06:30:43.243Z,95.00
2018-11-27T06:34:39.964Z,95.00
2018-11-27T06:38:36.746Z,95.10
2018-11-27T06:42:33.787Z,95.00
2018-11-27T06:46:30.578Z,95.10
2018-11-27T06:50:28.243Z,95.00
2018-11-27T06:54:24.963Z,95.00
2018-11-27T06:58:21.607Z,95.10
2018-11-27T07:02:18.379Z,94.90
2018-11-27T07:06:15.205Z,95.00
2018-11-27T07:10:45.797Z,95.00
2018-11-27T07:14:42.462Z,95.20
2018-11-27T07:18:39.421Z,95.20
2018-11-27T07:22:36.172Z,95.00
2018-11-27T07:26:32.878Z,95.00
2018-11-27T07:30:29.446Z,95.10
2018-11-27T07:34:26.304Z,95.30
2018-11-27T07:38:23.216Z,95.00
2018-11-27T07:42:20.113Z,95.00
2018-11-27T07:46:16.809Z,95.00
2018-11-27T07:50:14.557Z,94.90
2018-11-27T07:54:11.280Z,94.90
2018-11-27T07:58:08.418Z,94.90
2018-11-27T08:02:05.242Z,95.00
2018-11-27T08:06:02.674Z,95.50
2018-11-27T08:10:01.716Z,95.20
2018-11-27T08:13:58.078Z,95.30
2018-11-27T08:17:54.657Z,95.40
2018-11-27T08:21:52.056Z,95.30
2018-11-27T08:25:51.991Z,95.20
2018-11-27T08:29:48.676Z,95.40
2018-11-27T08:33:45.488Z,95.40
2018-11-27T08:37:43.016Z,95.50
2018-11-27T08:41:40.241Z,95.40
2018-11-27T08:45:36.630Z,95.50
2018-11-27T08:49:33.493Z,95.50
2018-11-27T08:53:30.485Z,95.60
2018-11-27T08:57:27.111Z,95.80
2018-11-27T09:01:23.940Z,96.00
2018-11-27T09:05:20.565Z,94.40
2018-11-27T09:09:17.435Z,93.70
2018-11-27T09:13:14.765Z,92.30
2018-11-27T09:17:12.002Z,89.10
2018-11-27T09:21:09.189Z,89.10
2018-11-27T09:25:08.684Z,90.10
2018-11-27T09:29:05.861Z,90.20
2018-11-27T09:33:02.658Z,90.20
2018-11-27T09:37:05.145Z,90.00
2018-11-27T09:41:02.689Z,89.80
2018-11-27T09:45:00.075Z,89.10
2018-11-27T09:48:57.720Z,88.90
2018-11-27T09:52:54.355Z,88.60
2018-11-27T09:56:53.509Z,88.30
2018-11-27T10:01:01.204Z,88.10
2018-11-27T10:04:57.947Z,88.00
2018-11-27T10:08:55.448Z,87.70
2018-11-27T10:12:52.772Z,87.60
2018-11-27T10:16:49.434Z,87.50
2018-11-27T10:20:47.198Z,87.30
2018-11-27T10:24:44.492Z,87.00
2018-11-27T10:28:41.216Z,87.00
2018-11-27T10:32:38.418Z,86.90
2018-11-27T10:36:35.104Z,86.60
2018-11-27T10:40:32.878Z,86.30
2018-11-27T10:44:30.072Z,87.00
2018-11-27T10:48:35.250Z,87.20
2018-11-27T10:52:32.039Z,86.70
2018-11-27T10:56:29.121Z,86.70
2018-11-27T11:00:32.116Z,85.20
2018-11-27T11:04:29.678Z,86.10
2018-11-27T11:08:27.653Z,86.50
2018-11-27T11:12:30.822Z,86.20
2018-11-27T11:16:33.240Z,86.10
2018-11-27T11:20:33.285Z,85.80
2018-11-27T11:24:32.463Z,86.10
2018-11-27T11:28:32.188Z,86.40
2018-11-27T11:32:29.734Z,84.20
2018-11-27T11:36:27.231Z,83.00
2018-11-27T11:40:26.248Z,82.10
2018-11-27T11:44:23.001Z,81.40
2018-11-27T11:48:20.573Z,80.30
2018-11-27T11:52:17.184Z,79.50
2018-11-27T11:56:14.147Z,78.90
2018-11-27T12:00:14.519Z,78.70
2018-11-27T12:04:12.075Z,78.40
2018-11-27T12:08:09.981Z,78.10
2018-11-27T12:12:06.660Z,78.00
2018-11-27T12:16:03.535Z,77.70
2018-11-27T12:20:01.116Z,77.50
2018-11-27T12:23:58.269Z,77.20
2018-11-27T12:27:58.384Z,77.00
2018-11-27T12:31:54.921Z,76.90
2018-11-27T12:35:51.947Z,76.80
2018-11-27T12:39:49.320Z,76.90
2018-11-27T12:43:46.334Z,76.70
2018-11-27T12:47:43.662Z,76.70
2018-11-27T12:51:40.509Z,76.70
2018-11-27T12:55:39.431Z,77.20
2018-11-27T12:59:36.072Z,77.00
2018-11-27T13:03:33.487Z,76.50
2018-11-27T13:07:32.873Z,76.50
2018-11-27T13:11:29.515Z,76.40
2018-11-27T13:15:26.084Z,76.40
2018-11-27T13:19:22.827Z,76.70
2018-11-27T13:23:20.478Z,76.60
2018-11-27T13:27:17.478Z,76.50
2018-11-27T13:31:16.757Z,76.40
2018-11-27T13:35:14.185Z,76.40
2018-11-27T13:39:32.703Z,76.40
2018-11-27T13:43:30.743Z,76.70
2018-11-27T13:47:27.457Z,76.90
2018-11-27T13:51:24.114Z,76.90
2018-11-27T13:55:22.427Z,76.90
2018-11-27T13:59:19.030Z,76.90
2018-11-27T14:03:16.677Z,76.90
2018-11-27T14:07:17.310Z,77.00
2018-11-27T14:11:18.947Z,77.00
2018-11-27T14:15:17.453Z,76.90
2018-11-27T14:19:14.031Z,76.90
2018-11-27T14:23:10.780Z,76.90
2018-11-27T14:27:07.835Z,76.90
2018-11-27T14:31:06.108Z,78.10
2018-11-27T14:35:02.934Z,77.70
2018-11-27T14:38:59.749Z,78.20
2018-11-27T14:42:56.712Z,78.20
2018-11-27T14:47:01.161Z,77.70
2018-11-27T14:50:58.246Z,78.20
2018-11-27T14:54:55.302Z,78.10
2018-11-27T14:58:52.017Z,78.40
2018-11-27T15:02:48.890Z,78.30
2018-11-27T15:06:46.263Z,78.40
2018-11-27T15:10:42.916Z,78.50
2018-11-27T15:14:39.545Z,78.40
2018-11-27T15:18:36.983Z,78.60
2018-11-27T15:22:33.830Z,78.60
2018-11-27T15:26:31.765Z,78.80
2018-11-27T15:30:34.819Z,78.90
2018-11-27T15:34:31.509Z,78.90
2018-11-27T15:38:28.657Z,78.90
2018-11-27T15:42:25.744Z,79.00
2018-11-27T15:46:22.447Z,78.70
2018-11-27T15:50:19.285Z,78.60
2018-11-27T15:54:16.066Z,78.50
2018-11-27T15:58:15.906Z,78.50
2018-11-27T16:02:13.676Z,78.50
2018-11-27T16:06:10.569Z,78.40
2018-11-27T16:10:10.482Z,78.50
2018-11-27T16:14:08.941Z,78.40
2018-11-27T16:18:06.200Z,78.30
2018-11-27T16:22:03.374Z,78.10
2018-11-27T16:26:00.331Z,78.00
2018-11-27T16:29:57.120Z,77.70
2018-11-27T16:33:53.900Z,77.50
2018-11-27T16:38:00.231Z,77.30
2018-11-27T16:41:58.174Z,78.30
2018-11-27T16:45:54.700Z,77.40
2018-11-27T16:49:51.491Z,76.50
2018-11-27T16:53:49.480Z,76.00
2018-11-27T16:57:50.438Z,75.40
2018-11-27T17:01:47.187Z,75.20
2018-11-27T17:05:45.204Z,75.30
2018-11-27T17:09:42.411Z,75.00
2018-11-27T17:13:38.976Z,75.80
2018-11-27T17:17:35.692Z,75.90
2018-11-27T17:21:32.633Z,75.60
2018-11-27T17:25:30.994Z,77.10
2018-11-27T17:29:28.145Z,77.40
2018-11-27T17:33:34.561Z,78.00
2018-11-27T17:37:31.535Z,78.10
2018-11-27T17:41:28.462Z,78.10
2018-11-27T17:45:26.459Z,78.20
2018-11-27T17:49:24.153Z,78.40
2018-11-27T17:53:20.857Z,78.40
2018-11-27T17:57:17.688Z,78.50
2018-11-27T18:01:14.564Z,78.70
2018-11-27T18:05:11.831Z,78.90
2018-11-27T18:09:10.357Z,78.90
2018-11-27T18:13:08.236Z,78.80
2018-11-27T18:17:05.052Z,79.10
2018-11-27T18:21:02.028Z,79.30
2018-11-27T18:24:58.705Z,79.30
2018-11-27T18:28:56.129Z,79.20
2018-11-27T18:32:52.826Z,79.10
2018-11-27T18:36:49.710Z,79.30
2018-11-27T18:40:46.591Z,79.80
2018-11-27T18:44:43.491Z,79.90
2018-11-27T18:48:40.119Z,80.10
2018-11-27T18:52:36.708Z,80.10
2018-11-27T18:56:33.436Z,80.10
2018-11-27T19:00:33.950Z,80.10
2018-11-27T19:04:30.568Z,79.90
2018-11-27T19:08:28.030Z,79.50
2018-11-27T19:12:24.792Z,79.50
2018-11-27T19:16:21.629Z,79.40
2018-11-27T19:20:18.300Z,80.30
2018-11-27T19:24:14.964Z,79.40
2018-11-27T19:28:11.613Z,79.30
2018-11-27T19:32:08.514Z,79.20
2018-11-27T19:36:05.779Z,79.60
2018-11-27T19:40:02.372Z,79.40
2018-11-27T19:43:59.182Z,79.40
2018-11-27T19:47:56.643Z,79.40
2018-11-27T19:51:53.236Z,79.50
2018-11-27T19:55:50.005Z,79.50
2018-11-27T19:59:48.164Z,79.70
2018-11-27T20:03:44.698Z,80.00
2018-11-27T20:07:46.134Z,79.90
2018-11-27T20:11:53.456Z,80.10
2018-11-27T20:15:50.121Z,80.10
2018-11-27T20:19:46.712Z,80.10
2018-11-27T20:23:43.872Z,80.00
2018-11-27T20:27:47.575Z,80.00
2018-11-27T20:31:44.272Z,80.00
2018-11-27T20:35:41.333Z,80.20
2018-11-27T20:39:38.171Z,80.00
2018-11-27T20:43:34.747Z,80.10
2018-11-27T20:47:32.602Z,80.30
2018-11-27T20:51:29.099Z,79.70
2018-11-27T20:55:26.495Z,79.40
2018-11-27T20:59:23.428Z,79.40
2018-11-27T21:03:20.935Z,79.30
2018-11-27T21:07:17.629Z,79.40
2018-11-27T21:11:14.275Z,79.50
2018-11-27T21:15:19.224Z,79.60
2018-11-27T21:19:15.935Z,79.50
2018-11-27T21:23:12.991Z,79.60
2018-11-27T21:27:10.020Z,79.70
2018-11-27T21:31:09.988Z,79.70
2018-11-27T21:35:09.319Z,79.70
2018-11-27T21:39:08.852Z,79.70
2018-11-27T21:43:06.587Z,79.90
2018-11-27T21:47:03.377Z,80.10
2018-11-27T21:51:01.877Z,80.10
2018-11-27T21:54:58.516Z,80.10
2018-11-27T21:58:55.243Z,80.00
2018-11-27T22:02:52.129Z,80.20
2018-11-27T22:06:48.864Z,80.20
2018-11-27T22:10:45.780Z,80.30
2018-11-27T22:14:42.924Z,80.20
2018-11-27T22:18:39.353Z,80.20
2018-11-27T22:22:35.799Z,80.20
2018-11-27T22:26:33.998Z,80.20
2018-11-27T22:30:30.431Z,80.40
2018-11-27T22:34:27.205Z,80.40
2018-11-27T22:38:23.924Z,80.40
2018-11-27T22:42:22.109Z,80.50
2018-11-27T22:46:19.030Z,80.50
2018-11-27T22:50:17.736Z,80.50
2018-11-27T22:54:14.520Z,81.00
2018-11-27T22:58:10.899Z,81.20
2018-11-27T23:02:08.069Z,81.30
2018-11-27T23:06:04.788Z,81.40
2018-11-27T23:10:01.441Z,81.30
2018-11-27T23:13:58.820Z,81.30
2018-11-27T23:17:55.615Z,81.40
2018-11-27T23:21:52.261Z,81.30
2018-11-27T23:25:49.065Z,81.40
2018-11-27T23:29:45.876Z,81.30
2018-11-27T23:33:42.844Z,81.30
2018-11-27T23:37:39.625Z,82.20
2018-11-27T23:41:36.201Z,83.80
2018-11-27T23:45:32.532Z,84.50
2018-11-27T23:49:29.317Z,83.80
2018-11-27T23:53:25.954Z,83.70
2018-11-27T23:57:22.650Z,83.80
